This demonstration page uses our WeatherBlox Daily Observations layout. Learn more.

41.55636, -103.73856

Hourly Observations for June 19, 2017

Temp ( °F °C ) Dew Point ( °F °C ) Humidity (%) Winds ( mph kmh ) Pressure ( in mb ) Visibility ( mi km ) Precip ( " mm )
12:53 am 00:53 Clear 61 16.1 48 8.9 63 63 N 6 9 29.99 1016 10 16.0934 0 0
1:53 am 01:53 Clear 59 15 48 8.9 67 67 N 5 7 29.99 1016 10 16.0934 0 0
2:53 am 02:53 Clear 57 13.9 49 9.4 74 74 N 6 9 30 1016 10 16.0934 0 0
3:53 am 03:53 Mostly Cloudy 56 13.3 49 9.4 77 77 NW 5 7 30.01 1016 10 16.0934 0 0
4:53 am 04:53 Clear 54 12.2 46 7.8 75 75 WNW 6 9 30.03 1017 10 16.0934 0 0
5:53 am 05:53 Mostly Sunny 53 11.7 45 7.2 74 74 WNW 7 11 30.06 1018 10 16.0934 0 0
6:53 am 06:53 Sunny 58 14.4 48 8.9 70 70 WNW 8 13 30.08 1019 10 16.0934 0 0
7:53 am 07:53 Sunny 63 17.2 48 8.9 58 58 NW 8 13 30.09 1019 10 16.0934 0 0
8:53 am 08:53 Sunny 69 20.6 48 8.9 47 47 W 7 11 30.1 1019 10 16.0934 0 0
9:53 am 09:53 Sunny 74 23.3 44 6.7 34 34 WNW 6 9 30.08 1019 10 16.0934 0 0
10:53 am 10:53 Mostly Sunny 77 25 44 6.7 31 31 W 12 19 30.07 1018 10 16.0934 0 0
11:53 am 11:53 Sunny 78 25.6 44 6.7 30 30 W 8 13 30.06 1018 10 16.0934 0 0
12:53 pm 12:53 Sunny 79 26.1 44 6.7 29 29 W 10 17 30.06 1018 10 16.0934 0 0
1:53 pm 13:53 Sunny 80 26.7 45 7.2 29 29 NW 6 9 30.04 1017 10 16.0934 0 0
2:53 pm 14:53 Sunny 82 27.8 45 7.2 27 27 WSW 12 19 30.03 1017 10 16.0934 0 0
3:53 pm 15:53 Sunny 84 28.9 45 7.2 25 25 NNW 9 15 30.01 1016 10 16.0934 0 0
4:53 pm 16:53 Sunny 84 28.9 46 7.8 27 27 W 8 13 30 1016 10 16.0934 0 0
5:53 pm 17:53 Sunny 82 27.8 47 8.3 29 29 N 3 6 30 1016 10 16.0934 0 0
6:53 pm 18:53 Sunny 79 26.1 50 10 36 36 NE 10 17 30 1016 10 16.0934 0 0
7:53 pm 19:53 Sunny 75 23.9 51 10.6 43 43 NE 6 9 30.02 1017 10 16.0934 0 0
8:53 pm 20:53 Clear 71 21.7 51 10.6 49 49 E 5 7 30.02 1017 10 16.0934 0 0
9:53 pm 21:53 Clear 67 19.4 51 10.6 57 57 E 5 7 30.03 1017 10 16.0934 0 0
10:53 pm 22:53 Clear 64 17.8 50 10 60 60 E 5 7 30.03 1017 10 16.0934 0 0
11:53 pm 23:53 Clear 62 16.7 50 10 65 65 E 3 6 30.03 1017 10 16.0934 0 0

Powered by AerisWeather